sensor_id;sensor_type;location;lat;lon;timestamp;pressure;altitude;pressure_sealevel;temperature;humidity
12987;BME280;58897;51.960;5.582;2023-02-22T00:00:44;101327.59;;;6.86;100.00
12987;BME280;58897;51.960;5.582;2023-02-22T00:03:19;101326.63;;;6.87;100.00
12987;BME280;58897;51.960;5.582;2023-02-22T00:06:01;101324.66;;;6.89;100.00
12987;BME280;58897;51.960;5.582;2023-02-22T00:08:33;101314.13;;;6.97;100.00
12987;BME280;58897;51.960;5.582;2023-02-22T00:11:01;101319.75;;;6.94;100.00
12987;BME280;58897;51.960;5.582;2023-02-22T00:13:29;101311.69;;;6.94;100.00
12987;BME280;58897;51.960;5.582;2023-02-22T00:15:56;101317.59;;;6.88;100.00
12987;BME280;58897;51.960;5.582;2023-02-22T00:18:24;101321.38;;;6.86;100.00
12987;BME280;58897;51.960;5.582;2023-02-22T00:20:56;101317.84;;;6.85;100.00
12987;BME280;58897;51.960;5.582;2023-02-22T00:23:27;101314.41;;;6.83;100.00
12987;BME280;58897;51.960;5.582;2023-02-22T00:25:56;101317.25;;;6.70;100.00
12987;BME280;58897;51.960;5.582;2023-02-22T00:28:24;101315.06;;;6.75;100.00
12987;BME280;58897;51.960;5.582;2023-02-22T00:30:51;101316.53;;;6.68;100.00
12987;BME280;58897;51.960;5.582;2023-02-22T00:33:17;101315.09;;;6.64;100.00
12987;BME280;58897;51.960;5.582;2023-02-22T00:35:44;101318.91;;;6.62;100.00
12987;BME280;58897;51.960;5.582;2023-02-22T00:38:13;101323.75;;;6.68;100.00
12987;BME280;58897;51.960;5.582;2023-02-22T00:40:40;101321.38;;;6.43;100.00
12987;BME280;58897;51.960;5.582;2023-02-22T00:43:06;101329.03;;;6.47;100.00
12987;BME280;58897;51.960;5.582;2023-02-22T00:45:34;101328.63;;;6.63;100.00
12987;BME280;58897;51.960;5.582;2023-02-22T00:48:03;101331.34;;;6.52;100.00
12987;BME280;58897;51.960;5.582;2023-02-22T00:50:31;101324.91;;;6.54;100.00
12987;BME280;58897;51.960;5.582;2023-02-22T00:53:00;101319.25;;;6.57;100.00
12987;BME280;58897;51.960;5.582;2023-02-22T00:55:32;101316.47;;;6.48;100.00
12987;BME280;58897;51.960;5.582;2023-02-22T00:57:59;101310.25;;;6.47;100.00
12987;BME280;58897;51.960;5.582;2023-02-22T01:00:32;101306.94;;;6.55;100.00
12987;BME280;58897;51.960;5.582;2023-02-22T01:02:59;101315.06;;;6.33;100.00
12987;BME280;58897;51.960;5.582;2023-02-22T01:05:27;101309.41;;;6.47;100.00
12987;BME280;58897;51.960;5.582;2023-02-22T01:07:55;101303.53;;;6.53;100.00
12987;BME280;58897;51.960;5.582;2023-02-22T01:10:24;101299.75;;;6.55;100.00
12987;BME280;58897;51.960;5.582;2023-02-22T01:12:51;101301.75;;;6.31;100.00
12987;BME280;58897;51.960;5.582;2023-02-22T01:15:19;101301.50;;;6.45;100.00
12987;BME280;58897;51.960;5.582;2023-02-22T01:17:51;101294.69;;;6.30;100.00
12987;BME280;58897;51.960;5.582;2023-02-22T01:20:21;101292.97;;;6.29;100.00
12987;BME280;58897;51.960;5.582;2023-02-22T01:22:53;101290.53;;;6.37;100.00
12987;BME280;58897;51.960;5.582;2023-02-22T01:25:22;101294.84;;;6.06;100.00
12987;BME280;58897;51.960;5.582;2023-02-22T01:27:50;101287.75;;;6.16;100.00
12987;BME280;58897;51.960;5.582;2023-02-22T01:30:22;101289.97;;;6.11;100.00
12987;BME280;58897;51.960;5.582;2023-02-22T01:32:49;101283.50;;;6.14;100.00
12987;BME280;58897;51.960;5.582;2023-02-22T01:35:22;101288.00;;;6.13;100.00
12987;BME280;58897;51.960;5.582;2023-02-22T01:37:49;101284.50;;;5.91;100.00
12987;BME280;58897;51.960;5.582;2023-02-22T01:40:22;101278.66;;;5.97;100.00
12987;BME280;58897;51.960;5.582;2023-02-22T01:42:54;101275.97;;;5.97;100.00
12987;BME280;58897;51.960;5.582;2023-02-22T01:47:58;101270.34;;;6.00;100.00
12987;BME280;58897;51.960;5.582;2023-02-22T01:50:28;101268.16;;;5.94;100.00
12987;BME280;58897;51.960;5.582;2023-02-22T01:52:55;101269.13;;;6.04;100.00
12987;BME280;58897;51.960;5.582;2023-02-22T01:55:22;101269.75;;;5.96;100.00
12987;BME280;58897;51.960;5.582;2023-02-22T01:57:48;101265.22;;;6.08;100.00
12987;BME280;58897;51.960;5.582;2023-02-22T02:00:17;101269.75;;;5.96;100.00
12987;BME280;58897;51.960;5.582;2023-02-22T02:02:59;101260.59;;;5.88;100.00
12987;BME280;58897;51.960;5.582;2023-02-22T02:05:28;101258.66;;;6.01;100.00
12987;BME280;58897;51.960;5.582;2023-02-22T02:07:58;101249.75;;;5.78;100.00
12987;BME280;58897;51.960;5.582;2023-02-22T02:10:28;101255.72;;;6.04;100.00
12987;BME280;58897;51.960;5.582;2023-02-22T02:12:57;101251.94;;;5.95;100.00
12987;BME280;58897;51.960;5.582;2023-02-22T02:15:30;101249.75;;;6.00;100.00
12987;BME280;58897;51.960;5.582;2023-02-22T02:18:03;101252.09;;;5.94;100.00
12987;BME280;58897;51.960;5.582;2023-02-22T02:20:37;101249.88;;;5.88;100.00
12987;BME280;58897;51.960;5.582;2023-02-22T02:26:24;101245.09;;;5.80;100.00
12987;BME280;58897;51.960;5.582;2023-02-22T02:29:12;101246.31;;;5.76;100.00
12987;BME280;58897;51.960;5.582;2023-02-22T02:34:37;101228.31;;;5.78;100.00
12987;BME280;58897;51.960;5.582;2023-02-22T02:40:05;101225.63;;;5.78;100.00
12987;BME280;58897;51.960;5.582;2023-02-22T02:45:53;101215.38;;;5.72;100.00
12987;BME280;58897;51.960;5.582;2023-02-22T02:48:26;101215.63;;;5.58;100.00
12987;BME280;58897;51.960;5.582;2023-02-22T02:50:55;101211.00;;;5.60;100.00
12987;BME280;58897;51.960;5.582;2023-02-22T02:53:32;101200.78;;;5.54;100.00
12987;BME280;58897;51.960;5.582;2023-02-22T02:55:59;101198.19;;;5.75;100.00
12987;BME280;58897;51.960;5.582;2023-02-22T02:58:26;101205.41;;;5.63;100.00
12987;BME280;58897;51.960;5.582;2023-02-22T03:00:56;101206.63;;;5.59;100.00
12987;BME280;58897;51.960;5.582;2023-02-22T03:03:46;101204.16;;;5.45;100.00
12987;BME280;58897;51.960;5.582;2023-02-22T03:09:35;101200.91;;;5.52;100.00
12987;BME280;58897;51.960;5.582;2023-02-22T03:12:26;101195.88;;;5.48;100.00
12987;BME280;58897;51.960;5.582;2023-02-22T03:17:52;101191.88;;;5.53;100.00
12987;BME280;58897;51.960;5.582;2023-02-22T03:20:29;101190.78;;;5.45;100.00
12987;BME280;58897;51.960;5.582;2023-02-22T03:23:06;101182.72;;;5.45;100.00
12987;BME280;58897;51.960;5.582;2023-02-22T03:25:39;101188.22;;;5.43;100.00
12987;BME280;58897;51.960;5.582;2023-02-22T03:28:10;101180.56;;;5.50;100.00
12987;BME280;58897;51.960;5.582;2023-02-22T03:30:43;101190.03;;;5.43;100.00
12987;BME280;58897;51.960;5.582;2023-02-22T03:33:16;101178.09;;;5.25;100.00
12987;BME280;58897;51.960;5.582;2023-02-22T03:35:50;101174.81;;;5.32;100.00
12987;BME280;58897;51.960;5.582;2023-02-22T03:38:24;101180.19;;;5.32;100.00
12987;BME280;58897;51.960;5.582;2023-02-22T03:40:55;101178.25;;;5.34;100.00
12987;BME280;58897;51.960;5.582;2023-02-22T03:43:28;101180.44;;;5.40;100.00
12987;BME280;58897;51.960;5.582;2023-02-22T03:45:57;101171.81;;;5.37;100.00
12987;BME280;58897;51.960;5.582;2023-02-22T03:48:33;101176.78;;;5.41;100.00
12987;BME280;58897;51.960;5.582;2023-02-22T03:51:02;101177.00;;;5.27;100.00
12987;BME280;58897;51.960;5.582;2023-02-22T03:53:31;101174.97;;;5.31;100.00
12987;BME280;58897;51.960;5.582;2023-02-22T03:55:59;101173.47;;;5.27;100.00
12987;BME280;58897;51.960;5.582;2023-02-22T03:58:30;101167.88;;;5.41;100.00
12987;BME280;58897;51.960;5.582;2023-02-22T04:00:58;101162.41;;;5.20;100.00
12987;BME280;58897;51.960;5.582;2023-02-22T04:03:25;101164.97;;;5.33;100.00
12987;BME280;58897;51.960;5.582;2023-02-22T04:05:51;101165.22;;;5.30;100.00
12987;BME280;58897;51.960;5.582;2023-02-22T04:08:18;101164.63;;;5.26;100.00
12987;BME280;58897;51.960;5.582;2023-02-22T04:10:44;101161.31;;;5.23;100.00
12987;BME280;58897;51.960;5.582;2023-02-22T04:13:11;101159.50;;;5.23;100.00
12987;BME280;58897;51.960;5.582;2023-02-22T04:15:39;101157.19;;;5.08;100.00
12987;BME280;58897;51.960;5.582;2023-02-22T04:18:06;101149.38;;;5.27;100.00
12987;BME280;58897;51.960;5.582;2023-02-22T04:20:32;101151.56;;;5.22;100.00
12987;BME280;58897;51.960;5.582;2023-02-22T04:23:00;101150.81;;;5.09;100.00
12987;BME280;58897;51.960;5.582;2023-02-22T04:25:26;101149.25;;;5.17;100.00
12987;BME280;58897;51.960;5.582;2023-02-22T04:27:53;101145.22;;;5.12;100.00
12987;BME280;58897;51.960;5.582;2023-02-22T04:30:20;101144.75;;;5.18;100.00
12987;BME280;58897;51.960;5.582;2023-02-22T04:32:46;101141.47;;;5.25;100.00
12987;BME280;58897;51.960;5.582;2023-02-22T04:35:13;101135.50;;;5.44;100.00
12987;BME280;58897;51.960;5.582;2023-02-22T04:37:39;101142.09;;;5.29;100.00
12987;BME280;58897;51.960;5.582;2023-02-22T04:40:06;101142.22;;;5.16;100.00
12987;BME280;58897;51.960;5.582;2023-02-22T04:42:34;101145.50;;;4.97;100.00
12987;BME280;58897;51.960;5.582;2023-02-22T04:45:02;101138.44;;;5.08;100.00
12987;BME280;58897;51.960;5.582;2023-02-22T04:47:28;101128.44;;;4.98;100.00
12987;BME280;58897;51.960;5.582;2023-02-22T04:49:55;101131.34;;;4.84;100.00
12987;BME280;58897;51.960;5.582;2023-02-22T04:52:21;101125.75;;;4.98;100.00
12987;BME280;58897;51.960;5.582;2023-02-22T04:54:48;101119.19;;;5.14;100.00
12987;BME280;58897;51.960;5.582;2023-02-22T04:57:14;101114.19;;;5.20;100.00
12987;BME280;58897;51.960;5.582;2023-02-22T04:59:40;101114.78;;;4.90;100.00
12987;BME280;58897;51.960;5.582;2023-02-22T05:02:07;101117.88;;;5.08;100.00
12987;BME280;58897;51.960;5.582;2023-02-22T05:04:36;101103.50;;;5.20;100.00
12987;BME280;58897;51.960;5.582;2023-02-22T05:07:03;101106.41;;;5.39;100.00
12987;BME280;58897;51.960;5.582;2023-02-22T05:09:30;101100.66;;;5.44;100.00
12987;BME280;58897;51.960;5.582;2023-02-22T05:11:56;101088.84;;;5.46;100.00
12987;BME280;58897;51.960;5.582;2023-02-22T05:14:23;101088.22;;;5.43;100.00
12987;BME280;58897;51.960;5.582;2023-02-22T05:16:58;101081.16;;;5.53;100.00
12987;BME280;58897;51.960;5.582;2023-02-22T05:19:24;101087.25;;;5.55;100.00
12987;BME280;58897;51.960;5.582;2023-02-22T05:21:51;101085.06;;;5.49;100.00
12987;BME280;58897;51.960;5.582;2023-02-22T05:24:17;101087.91;;;5.14;100.00
12987;BME280;58897;51.960;5.582;2023-02-22T05:26:45;101094.50;;;5.21;100.00
12987;BME280;58897;51.960;5.582;2023-02-22T05:29:11;101091.81;;;5.21;100.00
12987;BME280;58897;51.960;5.582;2023-02-22T05:31:38;101097.88;;;5.23;100.00
12987;BME280;58897;51.960;5.582;2023-02-22T05:34:07;101095.06;;;5.14;100.00
12987;BME280;58897;51.960;5.582;2023-02-22T05:36:36;101094.34;;;5.12;100.00
12987;BME280;58897;51.960;5.582;2023-02-22T05:39:04;101093.25;;;5.14;100.00
12987;BME280;58897;51.960;5.582;2023-02-22T05:41:30;101085.84;;;5.18;100.00
12987;BME280;58897;51.960;5.582;2023-02-22T05:43:57;101081.56;;;4.93;100.00
12987;BME280;58897;51.960;5.582;2023-02-22T05:46:23;101092.28;;;4.93;100.00
12987;BME280;58897;51.960;5.582;2023-02-22T05:48:50;101084.97;;;5.06;100.00
12987;BME280;58897;51.960;5.582;2023-02-22T05:51:17;101082.31;;;5.06;100.00
12987;BME280;58897;51.960;5.582;2023-02-22T05:53:44;101081.69;;;5.14;100.00
12987;BME280;58897;51.960;5.582;2023-02-22T05:56:11;101075.75;;;5.10;100.00
12987;BME280;58897;51.960;5.582;2023-02-22T05:58:38;101061.97;;;5.15;100.00
12987;BME280;58897;51.960;5.582;2023-02-22T06:01:04;101065.50;;;5.15;100.00
12987;BME280;58897;51.960;5.582;2023-02-22T06:03:31;101073.44;;;4.83;100.00
12987;BME280;58897;51.960;5.582;2023-02-22T06:05:57;101072.59;;;5.05;100.00
12987;BME280;58897;51.960;5.582;2023-02-22T06:08:24;101080.97;;;4.78;100.00
12987;BME280;58897;51.960;5.582;2023-02-22T06:10:50;101080.69;;;4.59;100.00
12987;BME280;58897;51.960;5.582;2023-02-22T06:13:16;101071.13;;;4.79;100.00
12987;BME280;58897;51.960;5.582;2023-02-22T06:15:43;101074.63;;;4.90;100.00
12987;BME280;58897;51.960;5.582;2023-02-22T06:18:09;101072.09;;;4.78;100.00
12987;BME280;58897;51.960;5.582;2023-02-22T06:20:36;101071.13;;;4.79;100.00
12987;BME280;58897;51.960;5.582;2023-02-22T06:23:03;101071.59;;;4.51;100.00
12987;BME280;58897;51.960;5.582;2023-02-22T06:25:30;101072.66;;;4.59;100.00
12987;BME280;58897;51.960;5.582;2023-02-22T06:27:59;101073.19;;;4.75;100.00
12987;BME280;58897;51.960;5.582;2023-02-22T06:30:26;101069.19;;;5.03;100.00
12987;BME280;58897;51.960;5.582;2023-02-22T06:32:52;101068.66;;;4.98;100.00
12987;BME280;58897;51.960;5.582;2023-02-22T06:35:19;101069.06;;;5.05;100.00
12987;BME280;58897;51.960;5.582;2023-02-22T06:37:46;101073.19;;;4.97;100.00
12987;BME280;58897;51.960;5.582;2023-02-22T06:40:13;101054.94;;;4.91;100.00
12987;BME280;58897;51.960;5.582;2023-02-22T06:42:40;101052.50;;;4.88;100.00
12987;BME280;58897;51.960;5.582;2023-02-22T06:45:07;101052.03;;;5.06;100.00
12987;BME280;58897;51.960;5.582;2023-02-22T06:47:38;101041.06;;;4.97;100.00
12987;BME280;58897;51.960;5.582;2023-02-22T06:50:07;101037.16;;;5.13;100.00
12987;BME280;58897;51.960;5.582;2023-02-22T06:52:41;101033.09;;;5.29;100.00
12987;BME280;58897;51.960;5.582;2023-02-22T06:55:07;101047.22;;;5.31;100.00
12987;BME280;58897;51.960;5.582;2023-02-22T06:57:34;101042.66;;;5.00;100.00
12987;BME280;58897;51.960;5.582;2023-02-22T07:00:00;101043.13;;;5.16;100.00
12987;BME280;58897;51.960;5.582;2023-02-22T07:02:27;101038.09;;;5.34;100.00
12987;BME280;58897;51.960;5.582;2023-02-22T07:04:53;101034.56;;;5.33;100.00
12987;BME280;58897;51.960;5.582;2023-02-22T07:07:21;101029.34;;;5.32;100.00
12987;BME280;58897;51.960;5.582;2023-02-22T07:09:50;101038.44;;;5.29;100.00
12987;BME280;58897;51.960;5.582;2023-02-22T07:12:16;101035.50;;;5.43;100.00
12987;BME280;58897;51.960;5.582;2023-02-22T07:14:43;101031.97;;;5.43;100.00
12987;BME280;58897;51.960;5.582;2023-02-22T07:17:09;101038.28;;;5.53;100.00
12987;BME280;58897;51.960;5.582;2023-02-22T07:19:37;101037.31;;;5.43;100.00
12987;BME280;58897;51.960;5.582;2023-02-22T07:22:04;101038.56;;;5.50;100.00
12987;BME280;58897;51.960;5.582;2023-02-22T07:24:31;101040.69;;;5.56;100.00
12987;BME280;58897;51.960;5.582;2023-02-22T07:27:00;101031.44;;;5.60;100.00
12987;BME280;58897;51.960;5.582;2023-02-22T07:29:27;101035.59;;;5.53;100.00
12987;BME280;58897;51.960;5.582;2023-02-22T07:31:54;101041.22;;;5.50;100.00
12987;BME280;58897;51.960;5.582;2023-02-22T07:34:21;101047.31;;;5.52;100.00
12987;BME280;58897;51.960;5.582;2023-02-22T07:36:47;101047.16;;;5.53;100.00
12987;BME280;58897;51.960;5.582;2023-02-22T07:39:14;101052.75;;;5.61;100.00
12987;BME280;58897;51.960;5.582;2023-02-22T07:41:40;101046.44;;;5.63;100.00
12987;BME280;58897;51.960;5.582;2023-02-22T07:44:07;101047.34;;;5.73;100.00
12987;BME280;58897;51.960;5.582;2023-02-22T07:46:33;101055.69;;;5.58;100.00
12987;BME280;58897;51.960;5.582;2023-02-22T07:49:00;101058.47;;;5.68;100.00
12987;BME280;58897;51.960;5.582;2023-02-22T07:51:26;101048.03;;;5.43;100.00
12987;BME280;58897;51.960;5.582;2023-02-22T07:53:53;101049.13;;;5.51;100.00
12987;BME280;58897;51.960;5.582;2023-02-22T07:56:19;101056.69;;;5.46;100.00
12987;BME280;58897;51.960;5.582;2023-02-22T07:58:46;101061.03;;;5.58;100.00
12987;BME280;58897;51.960;5.582;2023-02-22T08:01:12;101050.22;;;5.60;100.00
12987;BME280;58897;51.960;5.582;2023-02-22T08:03:39;101058.09;;;5.73;100.00
12987;BME280;58897;51.960;5.582;2023-02-22T08:06:06;101058.31;;;5.81;100.00
12987;BME280;58897;51.960;5.582;2023-02-22T08:08:33;101052.28;;;5.56;100.00
12987;BME280;58897;51.960;5.582;2023-02-22T08:11:00;101050.22;;;5.49;100.00
12987;BME280;58897;51.960;5.582;2023-02-22T08:13:26;101056.63;;;5.69;100.00
12987;BME280;58897;51.960;5.582;2023-02-22T08:15:53;101052.84;;;5.71;100.00
12987;BME280;58897;51.960;5.582;2023-02-22T08:18:22;101046.03;;;5.67;100.00
12987;BME280;58897;51.960;5.582;2023-02-22T08:20:49;101047.00;;;5.66;100.00
12987;BME280;58897;51.960;5.582;2023-02-22T08:23:18;101051.25;;;5.69;100.00
12987;BME280;58897;51.960;5.582;2023-02-22T08:25:45;101060.63;;;5.74;100.00
12987;BME280;58897;51.960;5.582;2023-02-22T08:28:13;101070.13;;;5.78;100.00
12987;BME280;58897;51.960;5.582;2023-02-22T08:30:41;101065.03;;;5.75;100.00
12987;BME280;58897;51.960;5.582;2023-02-22T08:33:10;101065.28;;;5.61;100.00
12987;BME280;58897;51.960;5.582;2023-02-22T08:35:40;101064.09;;;5.54;100.00
12987;BME280;58897;51.960;5.582;2023-02-22T08:38:07;101065.44;;;5.48;100.00
12987;BME280;58897;51.960;5.582;2023-02-22T08:40:39;101063.00;;;5.56;100.00
12987;BME280;58897;51.960;5.582;2023-02-22T08:43:06;101063.94;;;5.67;100.00
12987;BME280;58897;51.960;5.582;2023-02-22T08:45:32;101061.91;;;5.59;100.00
12987;BME280;58897;51.960;5.582;2023-02-22T08:47:59;101065.41;;;5.71;100.00
12987;BME280;58897;51.960;5.582;2023-02-22T08:50:28;101064.56;;;5.70;100.00
12987;BME280;58897;51.960;5.582;2023-02-22T08:52:57;101062.44;;;5.74;100.00
12987;BME280;58897;51.960;5.582;2023-02-22T08:55:27;101061.84;;;5.81;100.00
12987;BME280;58897;51.960;5.582;2023-02-22T08:57:54;101051.63;;;5.86;100.00
12987;BME280;58897;51.960;5.582;2023-02-22T09:00:21;101051.81;;;5.94;100.00
12987;BME280;58897;51.960;5.582;2023-02-22T09:02:51;101044.72;;;6.04;100.00
12987;BME280;58897;51.960;5.582;2023-02-22T09:05:18;101039.19;;;6.06;100.00
12987;BME280;58897;51.960;5.582;2023-02-22T09:07:44;101031.16;;;6.27;100.00
12987;BME280;58897;51.960;5.582;2023-02-22T09:10:16;101025.00;;;6.56;100.00
12987;BME280;58897;51.960;5.582;2023-02-22T09:12:43;101013.63;;;6.73;100.00
12987;BME280;58897;51.960;5.582;2023-02-22T09:15:10;101015.59;;;6.71;100.00
12987;BME280;58897;51.960;5.582;2023-02-22T09:17:36;101014.50;;;6.83;100.00
12987;BME280;58897;51.960;5.582;2023-02-22T09:20:05;101010.16;;;6.92;100.00
12987;BME280;58897;51.960;5.582;2023-02-22T09:22:32;101003.09;;;6.91;100.00
12987;BME280;58897;51.960;5.582;2023-02-22T09:24:58;101002.44;;;6.99;100.00
12987;BME280;58897;51.960;5.582;2023-02-22T09:27:33;100998.00;;;6.88;100.00
12987;BME280;58897;51.960;5.582;2023-02-22T09:29:59;100991.72;;;6.78;100.00
12987;BME280;58897;51.960;5.582;2023-02-22T09:32:26;100987.03;;;7.01;100.00
12987;BME280;58897;51.960;5.582;2023-02-22T09:34:53;100985.31;;;7.00;100.00
12987;BME280;58897;51.960;5.582;2023-02-22T09:37:21;100982.41;;;7.22;100.00
12987;BME280;58897;51.960;5.582;2023-02-22T09:39:47;100983.72;;;7.46;100.00
12987;BME280;58897;51.960;5.582;2023-02-22T09:44:52;100976.06;;;7.42;100.00
12987;BME280;58897;51.960;5.582;2023-02-22T09:47:36;100975.91;;;7.34;100.00
12987;BME280;58897;51.960;5.582;2023-02-22T09:50:10;100980.31;;;7.44;100.00
12987;BME280;58897;51.960;5.582;2023-02-22T09:55:37;100979.41;;;7.15;100.00
12987;BME280;58897;51.960;5.582;2023-02-22T09:58:35;100985.16;;;7.79;100.00
12987;BME280;58897;51.960;5.582;2023-02-22T10:03:53;100965.53;;;8.35;100.00
12987;BME280;58897;51.960;5.582;2023-02-22T10:06:23;100945.56;;;8.37;100.00
12987;BME280;58897;51.960;5.582;2023-02-22T10:08:53;100932.97;;;9.02;100.00
12987;BME280;58897;51.960;5.582;2023-02-22T10:22:26;100905.53;;;9.77;100.00
12987;BME280;58897;51.960;5.582;2023-02-22T10:25:03;100908.06;;;9.78;100.00
12987;BME280;58897;51.960;5.582;2023-02-22T10:27:39;100893.66;;;9.70;100.00
12987;BME280;58897;51.960;5.582;2023-02-22T10:33:01;100892.88;;;9.95;100.00
12987;BME280;58897;51.960;5.582;2023-02-22T10:35:35;100892.72;;;10.22;100.00
12987;BME280;58897;51.960;5.582;2023-02-22T10:38:17;100889.81;;;10.41;100.00
12987;BME280;58897;51.960;5.582;2023-02-22T10:43:20;100887.19;;;10.24;100.00
12987;BME280;58897;51.960;5.582;2023-02-22T10:45:51;100886.91;;;10.69;100.00
12987;BME280;58897;51.960;5.582;2023-02-22T10:48:22;100879.47;;;10.71;100.00
12987;BME280;58897;51.960;5.582;2023-02-22T10:50:51;100876.31;;;10.83;100.00
12987;BME280;58897;51.960;5.582;2023-02-22T10:53:19;100880.50;;;11.44;100.00
12987;BME280;58897;51.960;5.582;2023-02-22T10:58:40;100886.97;;;10.51;100.00
12987;BME280;58897;51.960;5.582;2023-02-22T11:01:18;100882.69;;;10.40;100.00
12987;BME280;58897;51.960;5.582;2023-02-22T11:03:55;100895.38;;;9.97;100.00
12987;BME280;58897;51.960;5.582;2023-02-22T11:06:22;100897.72;;;9.91;100.00
12987;BME280;58897;51.960;5.582;2023-02-22T11:08:49;100894.09;;;10.01;100.00
12987;BME280;58897;51.960;5.582;2023-02-22T11:11:24;100885.41;;;10.15;100.00
12987;BME280;58897;51.960;5.582;2023-02-22T11:13:55;100879.72;;;10.18;100.00
12987;BME280;58897;51.960;5.582;2023-02-22T11:18:59;100893.34;;;9.90;100.00
12987;BME280;58897;51.960;5.582;2023-02-22T11:21:28;100899.22;;;9.68;100.00
12987;BME280;58897;51.960;5.582;2023-02-22T11:24:06;100899.09;;;9.35;100.00
12987;BME280;58897;51.960;5.582;2023-02-22T11:26:52;100893.88;;;9.33;100.00
12987;BME280;58897;51.960;5.582;2023-02-22T11:29:25;100904.69;;;9.23;100.00
12987;BME280;58897;51.960;5.582;2023-02-22T11:31:54;100908.63;;;9.11;100.00
12987;BME280;58897;51.960;5.582;2023-02-22T11:34:27;100909.63;;;9.10;100.00
12987;BME280;58897;51.960;5.582;2023-02-22T11:36:54;100907.00;;;9.18;100.00
12987;BME280;58897;51.960;5.582;2023-02-22T11:39:27;100895.25;;;9.19;100.00
12987;BME280;58897;51.960;5.582;2023-02-22T11:41:55;100891.09;;;9.43;100.00
12987;BME280;58897;51.960;5.582;2023-02-22T11:46:51;100880.53;;;9.31;100.00
12987;BME280;58897;51.960;5.582;2023-02-22T11:49:31;100870.53;;;9.67;100.00
12987;BME280;58897;51.960;5.582;2023-02-22T11:58:36;100857.09;;;9.50;100.00
12987;BME280;58897;51.960;5.582;2023-02-22T12:09:39;100850.00;;;9.92;100.00
12987;BME280;58897;51.960;5.582;2023-02-22T12:12:19;100849.81;;;9.68;100.00
12987;BME280;58897;51.960;5.582;2023-02-22T12:15:03;100845.38;;;9.59;100.00
12987;BME280;58897;51.960;5.582;2023-02-22T12:20:38;100836.63;;;9.57;100.00
12987;BME280;58897;51.960;5.582;2023-02-22T12:25:40;100836.81;;;9.63;100.00
12987;BME280;58897;51.960;5.582;2023-02-22T12:28:15;100831.16;;;9.49;100.00
12987;BME280;58897;51.960;5.582;2023-02-22T12:31:20;100834.59;;;9.59;100.00
12987;BME280;58897;51.960;5.582;2023-02-22T12:36:29;100821.25;;;9.57;100.00
12987;BME280;58897;51.960;5.582;2023-02-22T12:39:03;100826.88;;;9.64;100.00
12987;BME280;58897;51.960;5.582;2023-02-22T12:41:45;100835.91;;;9.55;100.00
12987;BME280;58897;51.960;5.582;2023-02-22T12:44:17;100840.72;;;9.43;100.00
12987;BME280;58897;51.960;5.582;2023-02-22T12:46:50;100841.34;;;9.63;100.00
12987;BME280;58897;51.960;5.582;2023-02-22T12:50:01;100842.53;;;9.60;100.00
12987;BME280;58897;51.960;5.582;2023-02-22T12:52:45;100838.91;;;9.52;100.00
12987;BME280;58897;51.960;5.582;2023-02-22T12:55:20;100831.34;;;9.55;100.00
12987;BME280;58897;51.960;5.582;2023-02-22T12:57:55;100826.88;;;9.64;100.00
12987;BME280;58897;51.960;5.582;2023-02-22T13:00:40;100822.84;;;9.68;100.00
12987;BME280;58897;51.960;5.582;2023-02-22T13:05:50;100839.69;;;9.62;100.00
12987;BME280;58897;51.960;5.582;2023-02-22T13:08:30;100838.34;;;9.66;100.00
12987;BME280;58897;51.960;5.582;2023-02-22T13:11:32;100839.50;;;9.63;100.00
12987;BME280;58897;51.960;5.582;2023-02-22T13:14:34;100838.53;;;9.64;100.00
12987;BME280;58897;51.960;5.582;2023-02-22T13:17:18;100837.34;;;9.67;100.00
12987;BME280;58897;51.960;5.582;2023-02-22T13:20:02;100826.94;;;9.72;100.00
12987;BME280;58897;51.960;5.582;2023-02-22T13:22:40;100823.59;;;9.78;100.00
12987;BME280;58897;51.960;5.582;2023-02-22T13:25:17;100812.28;;;9.74;100.00
12987;BME280;58897;51.960;5.582;2023-02-22T13:27:49;100811.59;;;9.72;100.00
12987;BME280;58897;51.960;5.582;2023-02-22T13:30:37;100815.03;;;9.82;100.00
12987;BME280;58897;51.960;5.582;2023-02-22T13:35:59;100825.47;;;9.60;100.00
12987;BME280;58897;51.960;5.582;2023-02-22T13:44:16;100823.81;;;9.59;100.00
12987;BME280;58897;51.960;5.582;2023-02-22T13:52:23;100823.63;;;9.60;100.00
12987;BME280;58897;51.960;5.582;2023-02-22T13:54:57;100812.84;;;9.60;100.00
12987;BME280;58897;51.960;5.582;2023-02-22T13:57:44;100816.28;;;9.70;100.00
12987;BME280;58897;51.960;5.582;2023-02-22T14:05:47;100821.97;;;9.59;100.00
12987;BME280;58897;51.960;5.582;2023-02-22T14:10:54;100810.63;;;9.81;100.00
12987;BME280;58897;51.960;5.582;2023-02-22T14:13:29;100813.13;;;9.75;100.00
12987;BME280;58897;51.960;5.582;2023-02-22T14:18:30;100821.06;;;9.76;100.00
12987;BME280;58897;51.960;5.582;2023-02-22T14:23:37;100823.06;;;9.74;100.00
12987;BME280;58897;51.960;5.582;2023-02-22T14:26:13;100823.38;;;9.71;100.00
12987;BME280;58897;51.960;5.582;2023-02-22T14:28:44;100829.31;;;9.75;100.00
12987;BME280;58897;51.960;5.582;2023-02-22T14:31:17;100829.78;;;9.70;100.00
12987;BME280;58897;51.960;5.582;2023-02-22T14:34:07;100825.03;;;9.64;100.00
12987;BME280;58897;51.960;5.582;2023-02-22T14:37:03;100827.00;;;9.62;100.00
12987;BME280;58897;51.960;5.582;2023-02-22T14:39:40;100831.09;;;9.66;100.00
12987;BME280;58897;51.960;5.582;2023-02-22T14:42:23;100827.38;;;9.67;100.00
12987;BME280;58897;51.960;5.582;2023-02-22T14:50:24;100847.91;;;9.60;100.00
12987;BME280;58897;51.960;5.582;2023-02-22T14:55:43;100852.38;;;9.52;100.00
12987;BME280;58897;51.960;5.582;2023-02-22T14:58:22;100850.47;;;9.44;100.00
12987;BME280;58897;51.960;5.582;2023-02-22T15:00:52;100840.06;;;9.49;100.00
12987;BME280;58897;51.960;5.582;2023-02-22T15:03:32;100847.84;;;9.52;100.00